sensor_id;sensor_type;location;lat;lon;timestamp;P1;durP1;ratioP1;P2;durP2;ratioP2
22849;SDS011;11591;44.792;10.358;2023-03-01T05:47:04;25.20;;;11.80;;
22849;SDS011;11591;44.792;10.358;2023-03-01T05:49:30;29.17;;;12.50;;
22849;SDS011;11591;44.792;10.358;2023-03-01T05:51:57;27.23;;;12.27;;
22849;SDS011;11591;44.792;10.358;2023-03-01T05:54:22;27.88;;;12.93;;
22849;SDS011;11591;44.792;10.358;2023-03-01T05:56:48;28.08;;;12.50;;
22849;SDS011;11591;44.792;10.358;2023-03-01T05:59:14;28.50;;;13.25;;
22849;SDS011;11591;44.792;10.358;2023-03-01T06:01:41;24.52;;;11.60;;
22849;SDS011;11591;44.792;10.358;2023-03-01T06:04:07;27.55;;;11.43;;
22849;SDS011;11591;44.792;10.358;2023-03-01T06:06:33;30.02;;;13.55;;
22849;SDS011;11591;44.792;10.358;2023-03-01T06:09:02;30.92;;;13.02;;
22849;SDS011;11591;44.792;10.358;2023-03-01T06:11:29;31.58;;;13.48;;
22849;SDS011;11591;44.792;10.358;2023-03-01T06:13:55;30.55;;;12.25;;
22849;SDS011;11591;44.792;10.358;2023-03-01T06:16:21;31.80;;;13.52;;
22849;SDS011;11591;44.792;10.358;2023-03-01T06:18:46;29.63;;;12.48;;
22849;SDS011;11591;44.792;10.358;2023-03-01T06:21:12;28.60;;;13.05;;
22849;SDS011;11591;44.792;10.358;2023-03-01T06:23:38;33.47;;;12.77;;
22849;SDS011;11591;44.792;10.358;2023-03-01T06:26:23;29.92;;;12.68;;
22849;SDS011;11591;44.792;10.358;2023-03-01T06:28:49;26.92;;;12.90;;
22849;SDS011;11591;44.792;10.358;2023-03-01T06:31:14;32.50;;;13.20;;
22849;SDS011;11591;44.792;10.358;2023-03-01T06:33:40;32.85;;;13.95;;
22849;SDS011;11591;44.792;10.358;2023-03-01T06:36:06;34.28;;;15.38;;
22849;SDS011;11591;44.792;10.358;2023-03-01T06:38:33;28.13;;;13.35;;
22849;SDS011;11591;44.792;10.358;2023-03-01T06:40:59;26.85;;;12.63;;
22849;SDS011;11591;44.792;10.358;2023-03-01T06:43:26;30.63;;;13.07;;
22849;SDS011;11591;44.792;10.358;2023-03-01T06:45:52;29.20;;;13.40;;
22849;SDS011;11591;44.792;10.358;2023-03-01T06:48:18;33.67;;;13.35;;
22849;SDS011;11591;44.792;10.358;2023-03-01T06:50:44;32.47;;;13.95;;
22849;SDS011;11591;44.792;10.358;2023-03-01T06:53:10;34.45;;;13.60;;
22849;SDS011;11591;44.792;10.358;2023-03-01T06:55:35;26.52;;;12.77;;
22849;SDS011;11591;44.792;10.358;2023-03-01T06:58:02;30.48;;;13.30;;
22849;SDS011;11591;44.792;10.358;2023-03-01T07:00:28;29.50;;;13.38;;
22849;SDS011;11591;44.792;10.358;2023-03-01T07:02:54;29.23;;;12.80;;
22849;SDS011;11591;44.792;10.358;2023-03-01T07:05:22;29.08;;;13.63;;
22849;SDS011;11591;44.792;10.358;2023-03-01T07:07:48;28.23;;;12.85;;
22849;SDS011;11591;44.792;10.358;2023-03-01T07:10:14;29.35;;;13.13;;
22849;SDS011;11591;44.792;10.358;2023-03-01T07:12:40;27.27;;;12.50;;
22849;SDS011;11591;44.792;10.358;2023-03-01T07:15:08;24.45;;;11.80;;
22849;SDS011;11591;44.792;10.358;2023-03-01T07:17:35;25.63;;;11.25;;
22849;SDS011;11591;44.792;10.358;2023-03-01T07:20:01;27.40;;;12.02;;
22849;SDS011;11591;44.792;10.358;2023-03-01T07:22:26;26.25;;;11.38;;
22849;SDS011;11591;44.792;10.358;2023-03-01T07:24:52;29.98;;;13.10;;
22849;SDS011;11591;44.792;10.358;2023-03-01T07:27:18;35.75;;;13.25;;
22849;SDS011;11591;44.792;10.358;2023-03-01T07:29:44;28.23;;;13.27;;
22849;SDS011;11591;44.792;10.358;2023-03-01T07:32:10;30.98;;;13.52;;
22849;SDS011;11591;44.792;10.358;2023-03-01T07:34:36;28.60;;;13.10;;
22849;SDS011;11591;44.792;10.358;2023-03-01T07:37:01;28.08;;;13.48;;
22849;SDS011;11591;44.792;10.358;2023-03-01T07:39:27;32.33;;;13.25;;
22849;SDS011;11591;44.792;10.358;2023-03-01T07:41:53;29.50;;;13.38;;
22849;SDS011;11591;44.792;10.358;2023-03-01T07:44:21;29.80;;;12.95;;
22849;SDS011;11591;44.792;10.358;2023-03-01T07:46:47;28.52;;;13.45;;
22849;SDS011;11591;44.792;10.358;2023-03-01T07:49:13;28.58;;;12.57;;
22849;SDS011;11591;44.792;10.358;2023-03-01T07:51:39;31.58;;;14.02;;
22849;SDS011;11591;44.792;10.358;2023-03-01T07:54:05;29.05;;;12.57;;
22849;SDS011;11591;44.792;10.358;2023-03-01T07:56:31;31.83;;;13.10;;
22849;SDS011;11591;44.792;10.358;2023-03-01T07:58:58;27.38;;;13.02;;
22849;SDS011;11591;44.792;10.358;2023-03-01T08:01:25;30.45;;;13.13;;
22849;SDS011;11591;44.792;10.358;2023-03-01T08:03:50;25.00;;;12.85;;
22849;SDS011;11591;44.792;10.358;2023-03-01T08:06:16;26.65;;;11.75;;
22849;SDS011;11591;44.792;10.358;2023-03-01T08:08:43;30.80;;;12.60;;
22849;SDS011;11591;44.792;10.358;2023-03-01T08:11:10;26.77;;;12.05;;
22849;SDS011;11591;44.792;10.358;2023-03-01T08:13:37;30.88;;;12.82;;
22849;SDS011;11591;44.792;10.358;2023-03-01T08:16:07;29.30;;;12.82;;
22849;SDS011;11591;44.792;10.358;2023-03-01T08:18:34;25.90;;;11.70;;
22849;SDS011;11591;44.792;10.358;2023-03-01T08:21:01;26.95;;;11.93;;
22849;SDS011;11591;44.792;10.358;2023-03-01T08:23:29;36.00;;;16.17;;
22849;SDS011;11591;44.792;10.358;2023-03-01T08:26:02;40.67;;;18.35;;
22849;SDS011;11591;44.792;10.358;2023-03-01T08:28:29;31.27;;;13.75;;
22849;SDS011;11591;44.792;10.358;2023-03-01T08:30:55;27.77;;;12.45;;
22849;SDS011;11591;44.792;10.358;2023-03-01T08:33:21;25.75;;;11.70;;
22849;SDS011;11591;44.792;10.358;2023-03-01T08:35:47;25.92;;;12.07;;
22849;SDS011;11591;44.792;10.358;2023-03-01T08:38:13;26.10;;;12.23;;
22849;SDS011;11591;44.792;10.358;2023-03-01T08:40:39;28.88;;;12.40;;
22849;SDS011;11591;44.792;10.358;2023-03-01T08:43:05;27.40;;;12.50;;
22849;SDS011;11591;44.792;10.358;2023-03-01T08:45:31;30.83;;;13.20;;
22849;SDS011;11591;44.792;10.358;2023-03-01T08:47:57;32.97;;;13.27;;
22849;SDS011;11591;44.792;10.358;2023-03-01T08:50:23;28.58;;;13.05;;
22849;SDS011;11591;44.792;10.358;2023-03-01T08:52:50;25.02;;;11.77;;
22849;SDS011;11591;44.792;10.358;2023-03-01T08:55:16;28.50;;;11.45;;
22849;SDS011;11591;44.792;10.358;2023-03-01T08:57:42;26.20;;;12.23;;
22849;SDS011;11591;44.792;10.358;2023-03-01T09:00:09;25.98;;;11.45;;
22849;SDS011;11591;44.792;10.358;2023-03-01T09:02:36;26.02;;;11.85;;
22849;SDS011;11591;44.792;10.358;2023-03-01T09:05:03;23.75;;;10.90;;
22849;SDS011;11591;44.792;10.358;2023-03-01T09:07:29;26.15;;;12.27;;
22849;SDS011;11591;44.792;10.358;2023-03-01T09:09:55;25.23;;;11.45;;
22849;SDS011;11591;44.792;10.358;2023-03-01T09:12:21;31.15;;;11.82;;
22849;SDS011;11591;44.792;10.358;2023-03-01T09:14:47;28.60;;;10.93;;
22849;SDS011;11591;44.792;10.358;2023-03-01T09:17:13;25.45;;;11.85;;
22849;SDS011;11591;44.792;10.358;2023-03-01T09:19:39;27.27;;;12.43;;
22849;SDS011;11591;44.792;10.358;2023-03-01T09:22:05;27.85;;;12.13;;
22849;SDS011;11591;44.792;10.358;2023-03-01T09:24:30;27.15;;;11.98;;
22849;SDS011;11591;44.792;10.358;2023-03-01T09:26:56;26.45;;;11.70;;
22849;SDS011;11591;44.792;10.358;2023-03-01T09:29:22;31.98;;;11.38;;
22849;SDS011;11591;44.792;10.358;2023-03-01T09:31:48;24.10;;;11.27;;
22849;SDS011;11591;44.792;10.358;2023-03-01T09:34:14;24.83;;;11.80;;
22849;SDS011;11591;44.792;10.358;2023-03-01T09:36:44;28.00;;;11.35;;
22849;SDS011;11591;44.792;10.358;2023-03-01T09:39:10;28.15;;;11.02;;
22849;SDS011;11591;44.792;10.358;2023-03-01T09:41:38;28.30;;;11.55;;
22849;SDS011;11591;44.792;10.358;2023-03-01T09:46:44;24.50;;;11.50;;
22849;SDS011;11591;44.792;10.358;2023-03-01T09:49:27;31.42;;;11.27;;
22849;SDS011;11591;44.792;10.358;2023-03-01T09:54:44;24.17;;;11.15;;
22849;SDS011;11591;44.792;10.358;2023-03-01T10:05:25;26.13;;;10.80;;
22849;SDS011;11591;44.792;10.358;2023-03-01T10:13:07;29.88;;;11.05;;
22849;SDS011;11591;44.792;10.358;2023-03-01T10:15:40;24.27;;;9.93;;
22849;SDS011;11591;44.792;10.358;2023-03-01T10:18:11;24.88;;;10.73;;
22849;SDS011;11591;44.792;10.358;2023-03-01T10:20:46;21.70;;;10.25;;
22849;SDS011;11591;44.792;10.358;2023-03-01T10:23:17;23.13;;;10.43;;
22849;SDS011;11591;44.792;10.358;2023-03-01T10:31:08;28.17;;;10.77;;
22849;SDS011;11591;44.792;10.358;2023-03-01T10:33:40;23.20;;;9.80;;
22849;SDS011;11591;44.792;10.358;2023-03-01T10:36:06;23.52;;;9.85;;
22849;SDS011;11591;44.792;10.358;2023-03-01T10:41:22;20.38;;;9.57;;
22849;SDS011;11591;44.792;10.358;2023-03-01T10:43:54;19.05;;;9.18;;
22849;SDS011;11591;44.792;10.358;2023-03-01T10:46:27;19.63;;;9.52;;
22849;SDS011;11591;44.792;10.358;2023-03-01T10:49:14;19.98;;;9.32;;
22849;SDS011;11591;44.792;10.358;2023-03-01T10:51:40;21.38;;;9.52;;
22849;SDS011;11591;44.792;10.358;2023-03-01T10:54:18;25.02;;;9.05;;
22849;SDS011;11591;44.792;10.358;2023-03-01T10:57:00;21.65;;;8.82;;
22849;SDS011;11591;44.792;10.358;2023-03-01T11:07:25;22.13;;;9.10;;
22849;SDS011;11591;44.792;10.358;2023-03-01T11:09:51;20.63;;;9.20;;
22849;SDS011;11591;44.792;10.358;2023-03-01T11:12:17;19.20;;;8.25;;
22849;SDS011;11591;44.792;10.358;2023-03-01T11:15:01;23.52;;;9.00;;
22849;SDS011;11591;44.792;10.358;2023-03-01T11:17:31;23.75;;;9.38;;
22849;SDS011;11591;44.792;10.358;2023-03-01T11:19:59;19.15;;;8.93;;
22849;SDS011;11591;44.792;10.358;2023-03-01T11:22:28;19.83;;;8.55;;
22849;SDS011;11591;44.792;10.358;2023-03-01T11:24:56;19.13;;;8.85;;
22849;SDS011;11591;44.792;10.358;2023-03-01T11:30:05;19.33;;;8.70;;
22849;SDS011;11591;44.792;10.358;2023-03-01T11:32:46;19.17;;;8.65;;
22849;SDS011;11591;44.792;10.358;2023-03-01T11:35:20;22.42;;;9.02;;
22849;SDS011;11591;44.792;10.358;2023-03-01T11:43:20;22.50;;;8.88;;
22849;SDS011;11591;44.792;10.358;2023-03-01T11:46:19;21.67;;;9.52;;
22849;SDS011;11591;44.792;10.358;2023-03-01T11:54:25;22.45;;;9.77;;
22849;SDS011;11591;44.792;10.358;2023-03-01T11:57:18;23.67;;;9.88;;
22849;SDS011;11591;44.792;10.358;2023-03-01T12:00:07;24.20;;;11.27;;
22849;SDS011;11591;44.792;10.358;2023-03-01T12:02:57;24.85;;;11.07;;
22849;SDS011;11591;44.792;10.358;2023-03-01T12:08:11;29.27;;;10.23;;
22849;SDS011;11591;44.792;10.358;2023-03-01T12:22:20;28.45;;;12.02;;
22849;SDS011;11591;44.792;10.358;2023-03-01T12:38:49;25.35;;;11.70;;
22849;SDS011;11591;44.792;10.358;2023-03-01T12:44:23;26.67;;;11.48;;
22849;SDS011;11591;44.792;10.358;2023-03-01T12:50:37;25.90;;;11.23;;
22849;SDS011;11591;44.792;10.358;2023-03-01T12:53:07;28.42;;;11.80;;
22849;SDS011;11591;44.792;10.358;2023-03-01T12:55:47;27.88;;;12.40;;
22849;SDS011;11591;44.792;10.358;2023-03-01T13:06:37;26.17;;;11.48;;
22849;SDS011;11591;44.792;10.358;2023-03-01T13:09:36;30.90;;;12.27;;
22849;SDS011;11591;44.792;10.358;2023-03-01T13:12:02;26.88;;;11.82;;
22849;SDS011;11591;44.792;10.358;2023-03-01T13:16:57;28.27;;;12.50;;
22849;SDS011;11591;44.792;10.358;2023-03-01T13:19:24;26.95;;;11.70;;
22849;SDS011;11591;44.792;10.358;2023-03-01T13:21:52;28.30;;;12.38;;
22849;SDS011;11591;44.792;10.358;2023-03-01T13:32:27;27.20;;;11.68;;
22849;SDS011;11591;44.792;10.358;2023-03-01T13:37:44;28.02;;;12.23;;
22849;SDS011;11591;44.792;10.358;2023-03-01T13:42:50;27.80;;;12.00;;
22849;SDS011;11591;44.792;10.358;2023-03-01T13:45:38;29.95;;;11.82;;
22849;SDS011;11591;44.792;10.358;2023-03-01T13:48:20;29.58;;;12.65;;
22849;SDS011;11591;44.792;10.358;2023-03-01T13:51:08;27.40;;;12.48;;
22849;SDS011;11591;44.792;10.358;2023-03-01T13:53:37;27.90;;;11.95;;
22849;SDS011;11591;44.792;10.358;2023-03-01T13:56:11;30.38;;;12.55;;
22849;SDS011;11591;44.792;10.358;2023-03-01T13:58:47;31.92;;;12.75;;
22849;SDS011;11591;44.792;10.358;2023-03-01T14:01:28;34.15;;;13.07;;
22849;SDS011;11591;44.792;10.358;2023-03-01T14:03:56;32.00;;;12.70;;
22849;SDS011;11591;44.792;10.358;2023-03-01T14:06:24;33.70;;;14.20;;
22849;SDS011;11591;44.792;10.358;2023-03-01T14:09:05;29.50;;;12.45;;
22849;SDS011;11591;44.792;10.358;2023-03-01T14:14:44;29.08;;;13.10;;
22849;SDS011;11591;44.792;10.358;2023-03-01T14:20:19;34.75;;;16.00;;
22849;SDS011;11591;44.792;10.358;2023-03-01T14:22:47;35.85;;;14.95;;
22849;SDS011;11591;44.792;10.358;2023-03-01T14:25:21;33.10;;;13.80;;
22849;SDS011;11591;44.792;10.358;2023-03-01T14:30:24;31.38;;;13.63;;
22849;SDS011;11591;44.792;10.358;2023-03-01T14:33:00;28.27;;;12.60;;
22849;SDS011;11591;44.792;10.358;2023-03-01T14:35:29;25.83;;;11.52;;
22849;SDS011;11591;44.792;10.358;2023-03-01T14:38:05;32.67;;;12.35;;
22849;SDS011;11591;44.792;10.358;2023-03-01T14:40:44;28.35;;;11.13;;
22849;SDS011;11591;44.792;10.358;2023-03-01T14:43:11;30.75;;;12.68;;
22849;SDS011;11591;44.792;10.358;2023-03-01T14:45:47;28.42;;;12.02;;
22849;SDS011;11591;44.792;10.358;2023-03-01T14:48:15;31.80;;;12.85;;
22849;SDS011;11591;44.792;10.358;2023-03-01T14:50:42;30.95;;;12.75;;
22849;SDS011;11591;44.792;10.358;2023-03-01T14:53:20;29.67;;;12.80;;
22849;SDS011;11591;44.792;10.358;2023-03-01T14:55:50;29.23;;;12.50;;
22849;SDS011;11591;44.792;10.358;2023-03-01T14:58:20;31.10;;;13.07;;
22849;SDS011;11591;44.792;10.358;2023-03-01T15:00:52;30.15;;;12.23;;
22849;SDS011;11591;44.792;10.358;2023-03-01T15:03:41;31.75;;;12.02;;
22849;SDS011;11591;44.792;10.358;2023-03-01T15:06:09;30.77;;;12.85;;
22849;SDS011;11591;44.792;10.358;2023-03-01T15:08:41;30.67;;;12.10;;
22849;SDS011;11591;44.792;10.358;2023-03-01T15:13:39;27.58;;;12.55;;
22849;SDS011;11591;44.792;10.358;2023-03-01T15:19:01;30.83;;;12.63;;
22849;SDS011;11591;44.792;10.358;2023-03-01T15:21:31;34.75;;;12.48;;
22849;SDS011;11591;44.792;10.358;2023-03-01T15:26:45;29.45;;;12.73;;
22849;SDS011;11591;44.792;10.358;2023-03-01T15:29:31;29.95;;;13.32;;
22849;SDS011;11591;44.792;10.358;2023-03-01T15:32:44;28.58;;;13.05;;
22849;SDS011;11591;44.792;10.358;2023-03-01T15:41:24;33.72;;;12.52;;
22849;SDS011;11591;44.792;10.358;2023-03-01T15:43:53;31.13;;;12.43;;
22849;SDS011;11591;44.792;10.358;2023-03-01T15:46:33;26.38;;;12.20;;
22849;SDS011;11591;44.792;10.358;2023-03-01T15:49:03;27.45;;;12.15;;
22849;SDS011;11591;44.792;10.358;2023-03-01T15:54:20;25.83;;;12.60;;
22849;SDS011;11591;44.792;10.358;2023-03-01T15:56:48;27.08;;;12.50;;
22849;SDS011;11591;44.792;10.358;2023-03-01T15:59:15;28.67;;;12.18;;
22849;SDS011;11591;44.792;10.358;2023-03-01T16:01:42;34.75;;;15.18;;
22849;SDS011;11591;44.792;10.358;2023-03-01T16:04:11;31.52;;;13.88;;
22849;SDS011;11591;44.792;10.358;2023-03-01T16:06:41;32.13;;;13.80;;
22849;SDS011;11591;44.792;10.358;2023-03-01T16:09:07;27.23;;;12.88;;
22849;SDS011;11591;44.792;10.358;2023-03-01T16:11:35;29.50;;;13.27;;
22849;SDS011;11591;44.792;10.358;2023-03-01T16:14:02;31.63;;;13.10;;
22849;SDS011;11591;44.792;10.358;2023-03-01T16:16:28;31.92;;;13.18;;
22849;SDS011;11591;44.792;10.358;2023-03-01T16:18:55;29.38;;;12.82;;
22849;SDS011;11591;44.792;10.358;2023-03-01T16:21:22;26.65;;;13.13;;
22849;SDS011;11591;44.792;10.358;2023-03-01T16:23:49;33.20;;;13.32;;
22849;SDS011;11591;44.792;10.358;2023-03-01T16:26:16;28.77;;;12.30;;
22849;SDS011;11591;44.792;10.358;2023-03-01T16:28:44;30.92;;;14.18;;
22849;SDS011;11591;44.792;10.358;2023-03-01T16:31:10;29.17;;;13.25;;
22849;SDS011;11591;44.792;10.358;2023-03-01T16:33:37;25.80;;;12.15;;
22849;SDS011;11591;44.792;10.358;2023-03-01T16:36:09;31.35;;;13.52;;
22849;SDS011;11591;44.792;10.358;2023-03-01T16:38:37;29.73;;;13.13;;
22849;SDS011;11591;44.792;10.358;2023-03-01T16:41:04;32.95;;;12.70;;
22849;SDS011;11591;44.792;10.358;2023-03-01T16:43:30;29.65;;;13.13;;
22849;SDS011;11591;44.792;10.358;2023-03-01T16:45:57;31.65;;;13.90;;
22849;SDS011;11591;44.792;10.358;2023-03-01T16:48:24;30.50;;;13.07;;
22849;SDS011;11591;44.792;10.358;2023-03-01T16:50:59;27.08;;;13.32;;
22849;SDS011;11591;44.792;10.358;2023-03-01T16:53:27;30.88;;;14.00;;
22849;SDS011;11591;44.792;10.358;2023-03-01T16:55:54;27.35;;;12.43;;
22849;SDS011;11591;44.792;10.358;2023-03-01T16:58:23;29.92;;;13.68;;
22849;SDS011;11591;44.792;10.358;2023-03-01T17:00:50;28.65;;;13.10;;
22849;SDS011;11591;44.792;10.358;2023-03-01T17:03:19;30.42;;;13.00;;
22849;SDS011;11591;44.792;10.358;2023-03-01T17:05:46;29.80;;;12.93;;
22849;SDS011;11591;44.792;10.358;2023-03-01T17:08:12;30.05;;;13.48;;
22849;SDS011;11591;44.792;10.358;2023-03-01T17:10:38;33.67;;;13.68;;
22849;SDS011;11591;44.792;10.358;2023-03-01T17:13:04;29.55;;;12.65;;
22849;SDS011;11591;44.792;10.358;2023-03-01T17:15:30;32.65;;;14.13;;
22849;SDS011;11591;44.792;10.358;2023-03-01T17:17:55;27.58;;;11.68;;
22849;SDS011;11591;44.792;10.358;2023-03-01T17:20:21;27.40;;;12.18;;
22849;SDS011;11591;44.792;10.358;2023-03-01T17:22:47;27.38;;;12.32;;
22849;SDS011;11591;44.792;10.358;2023-03-01T17:25:13;27.67;;;12.65;;
22849;SDS011;11591;44.792;10.358;2023-03-01T17:27:39;27.42;;;12.80;;
22849;SDS011;11591;44.792;10.358;2023-03-01T17:30:08;27.30;;;12.38;;
22849;SDS011;11591;44.792;10.358;2023-03-01T17:32:36;25.08;;;12.05;;
22849;SDS011;11591;44.792;10.358;2023-03-01T17:35:02;23.65;;;11.60;;
22849;SDS011;11591;44.792;10.358;2023-03-01T17:37:30;25.88;;;11.68;;
22849;SDS011;11591;44.792;10.358;2023-03-01T17:39:55;29.63;;;12.30;;
22849;SDS011;11591;44.792;10.358;2023-03-01T17:42:21;26.63;;;11.95;;
22849;SDS011;11591;44.792;10.358;2023-03-01T17:44:47;24.83;;;11.82;;
22849;SDS011;11591;44.792;10.358;2023-03-01T17:47:13;24.27;;;12.35;;
22849;SDS011;11591;44.792;10.358;2023-03-01T17:49:39;24.17;;;11.35;;
22849;SDS011;11591;44.792;10.358;2023-03-01T17:52:04;28.25;;;12.60;;
22849;SDS011;11591;44.792;10.358;2023-03-01T17:54:30;25.58;;;11.80;;
22849;SDS011;11591;44.792;10.358;2023-03-01T17:56:57;26.10;;;12.15;;
22849;SDS011;11591;44.792;10.358;2023-03-01T17:59:24;27.77;;;12.65;;
22849;SDS011;11591;44.792;10.358;2023-03-01T18:01:55;26.35;;;11.52;;
22849;SDS011;11591;44.792;10.358;2023-03-01T18:04:22;25.10;;;12.02;;
22849;SDS011;11591;44.792;10.358;2023-03-01T18:06:48;29.88;;;13.02;;
22849;SDS011;11591;44.792;10.358;2023-03-01T18:09:14;28.15;;;12.93;;
22849;SDS011;11591;44.792;10.358;2023-03-01T18:11:39;33.55;;;12.77;;
22849;SDS011;11591;44.792;10.358;2023-03-01T18:14:06;26.50;;;12.00;;
22849;SDS011;11591;44.792;10.358;2023-03-01T18:16:32;25.63;;;12.25;;
22849;SDS011;11591;44.792;10.358;2023-03-01T18:18:59;28.27;;;12.55;;
22849;SDS011;11591;44.792;10.358;2023-03-01T18:21:28;29.52;;;13.00;;
22849;SDS011;11591;44.792;10.358;2023-03-01T18:23:54;24.70;;;12.07;;
22849;SDS011;11591;44.792;10.358;2023-03-01T18:26:20;24.42;;;12.10;;
22849;SDS011;11591;44.792;10.358;2023-03-01T18:28:47;27.98;;;12.80;;
22849;SDS011;11591;44.792;10.358;2023-03-01T18:31:15;27.02;;;12.70;;
22849;SDS011;11591;44.792;10.358;2023-03-01T18:33:42;29.20;;;12.35;;
22849;SDS011;11591;44.792;10.358;2023-03-01T18:36:28;23.85;;;12.27;;
22849;SDS011;11591;44.792;10.358;2023-03-01T18:38:55;25.05;;;12.68;;
22849;SDS011;11591;44.792;10.358;2023-03-01T18:41:25;29.23;;;13.65;;
22849;SDS011;11591;44.792;10.358;2023-03-01T18:43:52;25.70;;;13.10;;
22849;SDS011;11591;44.792;10.358;2023-03-01T18:46:18;27.95;;;13.27;;
22849;SDS011;11591;44.792;10.358;2023-03-01T18:48:44;26.75;;;13.05;;
22849;SDS011;11591;44.792;10.358;2023-03-01T18:51:12;27.52;;;12.70;;
22849;SDS011;11591;44.792;10.358;2023-03-01T18:53:39;29.70;;;13.85;;
22849;SDS011;11591;44.792;10.358;2023-03-01T18:56:05;31.58;;;14.32;;
22849;SDS011;11591;44.792;10.358;2023-03-01T18:58:33;29.90;;;13.93;;
22849;SDS011;11591;44.792;10.358;2023-03-01T19:00:59;27.27;;;12.40;;
22849;SDS011;11591;44.792;10.358;2023-03-01T19:03:28;29.50;;;13.20;;
22849;SDS011;11591;44.792;10.358;2023-03-01T19:05:55;28.60;;;13.50;;
22849;SDS011;11591;44.792;10.358;2023-03-01T19:08:23;30.02;;;14.35;;
22849;SDS011;11591;44.792;10.358;2023-03-01T19:10:58;28.25;;;13.88;;
22849;SDS011;11591;44.792;10.358;2023-03-01T19:13:28;34.22;;;14.20;;
22849;SDS011;11591;44.792;10.358;2023-03-01T19:16:01;27.63;;;13.55;;
22849;SDS011;11591;44.792;10.358;2023-03-01T19:18:29;27.40;;;13.75;;
22849;SDS011;11591;44.792;10.358;2023-03-01T19:21:02;27.60;;;14.48;;
22849;SDS011;11591;44.792;10.358;2023-03-01T19:23:29;28.80;;;14.38;;
22849;SDS011;11591;44.792;10.358;2023-03-01T19:26:02;34.65;;;16.20;;
22849;SDS011;11591;44.792;10.358;2023-03-01T19:28:33;30.75;;;15.52;;
22849;SDS011;11591;44.792;10.358;2023-03-01T19:31:06;31.30;;;15.52;;
22849;SDS011;11591;44.792;10.358;2023-03-01T19:33:33;34.38;;;16.55;;
22849;SDS011;11591;44.792;10.358;2023-03-01T19:36:00;31.02;;;15.50;;
22849;SDS011;11591;44.792;10.358;2023-03-01T19:38:27;30.52;;;14.80;;
22849;SDS011;11591;44.792;10.358;2023-03-01T19:40:54;30.42;;;13.50;;
22849;SDS011;11591;44.792;10.358;2023-03-01T19:43:20;33.95;;;16.15;;
22849;SDS011;11591;44.792;10.358;2023-03-01T19:45:50;33.92;;;15.80;;
22849;SDS011;11591;44.792;10.358;2023-03-01T19:48:19;30.58;;;15.60;;
22849;SDS011;11591;44.792;10.358;2023-03-01T19:50:45;32.35;;;16.20;;
22849;SDS011;11591;44.792;10.358;2023-03-01T19:53:12;34.20;;;15.77;;
22849;SDS011;11591;44.792;10.358;2023-03-01T19:55:39;36.05;;;15.30;;
22849;SDS011;11591;44.792;10.358;2023-03-01T19:58:05;31.05;;;15.18;;
22849;SDS011;11591;44.792;10.358;2023-03-01T20:00:34;32.58;;;14.90;;
22849;SDS011;11591;44.792;10.358;2023-03-01T20:03:01;31.67;;;15.02;;
22849;SDS011;11591;44.792;10.358;2023-03-01T20:05:26;33.45;;;15.32;;
22849;SDS011;11591;44.792;10.358;2023-03-01T20:07:55;32.35;;;16.13;;
22849;SDS011;11591;44.792;10.358;2023-03-01T20:10:22;32.55;;;16.20;;
22849;SDS011;11591;44.792;10.358;2023-03-01T20:12:51;34.25;;;15.15;;
22849;SDS011;11591;44.792;10.358;2023-03-01T20:15:17;37.60;;;16.23;;
22849;SDS011;11591;44.792;10.358;2023-03-01T20:17:44;34.17;;;15.27;;
22849;SDS011;11591;44.792;10.358;2023-03-01T20:20:10;34.13;;;15.32;;
22849;SDS011;11591;44.792;10.358;2023-03-01T20:22:36;36.55;;;16.17;;
22849;SDS011;11591;44.792;10.358;2023-03-01T20:25:02;35.88;;;15.45;;
22849;SDS011;11591;44.792;10.358;2023-03-01T20:27:29;33.13;;;15.93;;
22849;SDS011;11591;44.792;10.358;2023-03-01T20:29:55;37.40;;;16.13;;
22849;SDS011;11591;44.792;10.358;2023-03-01T20:32:21;34.15;;;15.52;;
22849;SDS011;11591;44.792;10.358;2023-03-01T20:34:47;35.80;;;16.08;;
22849;SDS011;11591;44.792;10.358;2023-03-01T20:37:15;35.70;;;16.30;;
22849;SDS011;11591;44.792;10.358;2023-03-01T20:39:41;39.00;;;17.52;;
22849;SDS011;11591;44.792;10.358;2023-03-01T20:42:07;34.00;;;16.05;;
22849;SDS011;11591;44.792;10.358;2023-03-01T20:44:34;30.30;;;14.40;;
22849;SDS011;11591;44.792;10.358;2023-03-01T20:47:07;31.10;;;14.57;;
22849;SDS011;11591;44.792;10.358;2023-03-01T20:49:38;34.05;;;15.82;;
22849;SDS011;11591;44.792;10.358;2023-03-01T20:52:05;38.90;;;16.83;;
22849;SDS011;11591;44.792;10.358;2023-03-01T20:54:31;39.50;;;16.17;;
22849;SDS011;11591;44.792;10.358;2023-03-01T20:56:57;32.88;;;15.55;;
22849;SDS011;11591;44.792;10.358;2023-03-01T20:59:23;34.88;;;16.05;;
22849;SDS011;11591;44.792;10.358;2023-03-01T21:01:49;35.58;;;15.80;;
22849;SDS011;11591;44.792;10.358;2023-03-01T21:04:15;38.25;;;17.02;;
22849;SDS011;11591;44.792;10.358;2023-03-01T21:06:42;33.67;;;15.82;;
22849;SDS011;11591;44.792;10.358;2023-03-01T21:09:10;36.42;;;16.00;;
22849;SDS011;11591;44.792;10.358;2023-03-01T21:11:36;40.70;;;17.17;;
22849;SDS011;11591;44.792;10.358;2023-03-01T21:14:02;39.22;;;17.90;;
22849;SDS011;11591;44.792;10.358;2023-03-01T21:16:29;39.08;;;17.20;;
22849;SDS011;11591;44.792;10.358;2023-03-01T21:18:57;39.78;;;17.40;;
22849;SDS011;11591;44.792;10.358;2023-03-01T21:21:25;40.40;;;17.65;;
22849;SDS011;11591;44.792;10.358;2023-03-01T21:23:52;37.00;;;17.02;;
22849;SDS011;11591;44.792;10.358;2023-03-01T21:26:20;41.40;;;17.13;;
22849;SDS011;11591;44.792;10.358;2023-03-01T21:28:52;45.08;;;17.67;;
22849;SDS011;11591;44.792;10.358;2023-03-01T21:31:29;44.45;;;18.58;;
22849;SDS011;11591;44.792;10.358;2023-03-01T21:33:58;43.45;;;18.13;;
22849;SDS011;11591;44.792;10.358;2023-03-01T21:36:28;42.50;;;17.85;;
22849;SDS011;11591;44.792;10.358;2023-03-01T21:38:54;42.40;;;18.27;;
22849;SDS011;11591;44.792;10.358;2023-03-01T21:41:21;42.20;;;18.98;;
22849;SDS011;11591;44.792;10.358;2023-03-01T21:43:49;36.88;;;16.50;;
22849;SDS011;11591;44.792;10.358;2023-03-01T21:46:17;38.15;;;17.23;;
22849;SDS011;11591;44.792;10.358;2023-03-01T21:48:46;39.53;;;17.48;;
22849;SDS011;11591;44.792;10.358;2023-03-01T21:51:13;38.75;;;17.55;;
22849;SDS011;11591;44.792;10.358;2023-03-01T21:53:41;38.63;;;17.00;;
22849;SDS011;11591;44.792;10.358;2023-03-01T21:56:07;37.05;;;16.23;;
22849;SDS011;11591;44.792;10.358;2023-03-01T21:58:34;35.22;;;17.58;;
22849;SDS011;11591;44.792;10.358;2023-03-01T22:01:07;34.75;;;15.40;;
22849;SDS011;11591;44.792;10.358;2023-03-01T22:03:35;37.28;;;14.90;;
22849;SDS011;11591;44.792;10.358;2023-03-01T22:06:10;35.15;;;15.15;;
22849;SDS011;11591;44.792;10.358;2023-03-01T22:08:47;30.50;;;15.40;;
22849;SDS011;11591;44.792;10.358;2023-03-01T22:11:19;32.88;;;15.05;;
22849;SDS011;11591;44.792;10.358;2023-03-01T22:13:46;36.60;;;15.95;;
22849;SDS011;11591;44.792;10.358;2023-03-01T22:16:17;33.50;;;15.52;;
22849;SDS011;11591;44.792;10.358;2023-03-01T22:18:44;31.98;;;14.30;;